Doha International Airport
OTBD : now visible

Airfield :











YOU CAN JOIN US ON...

 
LOGIN :

Register | Disclaimer

   EN    FR    IT 

 









Legend :    VFR   Marginal VFR   IFR   Intensive IFR   Very Intensive IFR
Visi :
Ceiling :
>= 8 km
>= 3000ft
5 to 8 km
1000 to 3000 ft
1500m to 5 km
500 to 1000 ft
800 to 1500m
200 to 500 ft
< 800m
< 200 ft
Symbols :   Thunderstorms  Fog  Heavy snow  Heavy precipitations  Wind > 20 kt






- Airport Elevation : 35 ft
- IATA code : DOH


OTBD - Doha International

CURRENT METAR :
  • 241800Z AUTO 09008KT CAVOK 24/15 Q1014 NOSIG

EXPIRED METARs :
  • 241730Z AUTO 09009KT CAVOK 24/14 Q1014 NOSIG
  • 241700Z AUTO 08008KT CAVOK 24/15 Q1013 NOSIG
  • 241630Z AUTO 08010KT CAVOK 24/16 Q1013 NOSIG
  • 241600Z AUTO 07009KT CAVOK 23/17 Q1013 NOSIG
  • 241530Z AUTO 08007KT CAVOK 23/18 Q1014 NOSIG

TAF TAF OTBD
Valid from the 24 at 18:00 until the 26 at 00:00 UTC


241701Z 2418/2524 11008KT 8000 NSC
TEMPO 2420/2505 13005KT 5000 HZ
PROB30
TEMPO 2500/2504 3000 BR
BECMG 2515/2517 12016KT 8000 NSC



MET'MAP, your aeronautical weather chart ! - Copyright ORBIFLY December 2007 - Disclaimer

ORBIFLY MET'MAP TEAM :

Programming & Development : Alexandra Zaïnal
Concept & original design : Baudouin d'Aumeries
Assistance for programming : Marc-Olivier Méhu
Technical & hardware support : Manuel Goepfert

Contact : metmap@orbifly.com




SOURCES & CREDITS :

   NOAA       Earth
Advisory